Airfield :
LOGIN :

Register | Disclaimer

   EN    FR    IT 

 










Legend :    VFR   Marginal VFR   IFR   Intensive IFR   Very Intensive IFR
Visi :
Ceiling :
>= 8 km
>= 3000ft
5 to 8 km
1000 to 3000 ft
1500m to 5 km
500 to 1000 ft
800 to 1500m
200 to 500 ft
< 800m
< 200 ft
Symbols :   Thunderstorms  Fog  Heavy snow  Heavy precipitations  Wind > 20 kt
SIGMETs :     Misc.  Thunderstorms  Icing  Turbulence  Mountain Waves  Volcanic Ashes






- Airport Elevation : 0 ft


ENSL - Sleipner A Platform

CURRENT METAR :
  • 250020Z AUTO 14022KT 9999 SCT032/// BKN048/// 15/11 Q1012 W14/S3

EXPIRED METARs :
  • 242350Z AUTO 14021KT 9999 SCT031/// 15/11 Q1012 W14/S3
  • 242320Z AUTO 13020KT CAVOK 15/11 Q1012 W14/S3
  • 242250Z AUTO 14019KT CAVOK 15/11 Q1013 W14/S3
  • 242220Z AUTO 14018KT 9999 BKN036/// 15/11 Q1013 W14/S3
  • 242150Z AUTO 14018KT 9999 BKN034/// 15/11 Q1014 W14/S3
  • 242120Z AUTO 14015KT 9999 BKN034/// 15/12 Q1014 W14/S3
  • 242050Z AUTO 15015KT 9999 SCT034/// 15/12 Q1014 W14/S3
  • 242020Z AUTO 16014KT 9999 FEW034/// 15/12 Q1015 W14/S3
  • 241950Z AUTO 16013KT CAVOK 14/11 Q1015 W14/S3

Expired Forecast.



MET'MAP, your aeronautical weather chart ! - Copyright ORBIFLY December 2007 - Disclaimer

ORBIFLY MET'MAP TEAM :

Programming & Development : Alexandra Zaïnal
Original concept : Baudouin d'Aumeries
Technical & hardware support : Manuel Goepfert
Assistance : Marc-Olivier Méhu




SOURCES & CREDITS :

   NOAA